createdAt,value
2019-03-24T00:03:30.421Z,116.43
2019-03-24T00:08:22.869Z,110.30
2019-03-24T00:13:15.714Z,116.43
2019-03-24T00:18:08.331Z,113.97
2019-03-24T00:23:01.247Z,104.13
2019-03-24T00:27:53.445Z,102.63
2019-03-24T00:32:46.156Z,97.27
2019-03-24T00:37:39.260Z,111.97
2019-03-24T00:42:31.566Z,108.87
2019-03-24T00:47:24.265Z,116.00
2019-03-24T00:52:16.632Z,145.20
2019-03-24T00:57:09.505Z,188.90
2019-03-24T01:02:01.882Z,127.63
2019-03-24T01:06:54.637Z,123.17
2019-03-24T01:11:47.209Z,133.03
2019-03-24T01:16:39.846Z,167.80
2019-03-24T01:21:32.634Z,141.60
2019-03-24T01:26:25.315Z,151.23
2019-03-24T01:31:17.908Z,123.97
2019-03-24T01:36:10.601Z,107.83
2019-03-24T01:41:03.298Z,106.47
2019-03-24T01:45:58.833Z,112.13
2019-03-24T01:50:49.749Z,106.07
2019-03-24T01:55:42.511Z,117.07
2019-03-24T02:00:35.000Z,108.50
2019-03-24T02:05:27.693Z,118.03
2019-03-24T02:10:20.369Z,107.00
2019-03-24T02:15:13.078Z,113.90
2019-03-24T02:20:06.757Z,116.93
2019-03-24T02:24:59.279Z,131.37
2019-03-24T02:29:51.932Z,106.30
2019-03-24T02:34:44.581Z,106.97
2019-03-24T02:39:37.099Z,100.90
2019-03-24T02:44:29.535Z,119.83
2019-03-24T02:49:22.415Z,105.60
2019-03-24T02:54:14.882Z,107.63
2019-03-24T02:59:07.409Z,109.93
2019-03-24T03:04:00.136Z,103.73
2019-03-24T03:08:52.814Z,99.60
2019-03-24T03:13:45.254Z,110.57
2019-03-24T03:18:38.105Z,104.40
2019-03-24T03:23:31.031Z,111.17
2019-03-24T03:28:23.452Z,106.50
2019-03-24T03:33:15.846Z,105.17
2019-03-24T03:38:08.302Z,118.67
2019-03-24T03:43:00.777Z,113.93
2019-03-24T03:47:53.414Z,108.53
2019-03-24T03:52:46.053Z,108.17
2019-03-24T03:57:38.883Z,114.70
2019-03-24T04:02:31.279Z,116.50
2019-03-24T04:07:24.040Z,113.97
2019-03-24T04:12:16.823Z,124.27
2019-03-24T04:17:09.937Z,111.10
2019-03-24T04:22:02.253Z,118.67
2019-03-24T04:26:54.607Z,115.80
2019-03-24T04:31:47.058Z,123.83
2019-03-24T04:36:39.942Z,130.50
2019-03-24T04:41:32.592Z,124.80
2019-03-24T04:46:24.982Z,106.97
2019-03-24T04:51:17.429Z,101.27
2019-03-24T04:56:10.067Z,107.53
2019-03-24T05:01:02.467Z,91.97
2019-03-24T05:05:55.441Z,95.13
2019-03-24T05:10:48.043Z,107.20
2019-03-24T05:15:40.646Z,101.30
2019-03-24T05:20:33.412Z,106.40
2019-03-24T05:25:25.979Z,103.07
2019-03-24T05:30:18.739Z,98.10
2019-03-24T05:35:11.045Z,100.97
2019-03-24T05:40:04.562Z,100.57
2019-03-24T05:44:57.116Z,99.33
2019-03-24T05:49:50.830Z,98.43
2019-03-24T05:54:43.422Z,97.73
2019-03-24T05:59:35.884Z,105.20
2019-03-24T06:04:29.317Z,108.77
2019-03-24T06:09:21.429Z,103.30
2019-03-24T06:14:14.221Z,94.47
2019-03-24T06:19:06.749Z,94.73
2019-03-24T06:23:59.374Z,94.87
2019-03-24T06:28:51.981Z,89.03
2019-03-24T06:33:48.230Z,88.10
2019-03-24T06:38:40.362Z,112.13
2019-03-24T06:43:32.737Z,98.73
2019-03-24T06:48:25.539Z,135.53
2019-03-24T06:53:17.837Z,99.50
2019-03-24T06:58:10.300Z,103.07
2019-03-24T07:03:03.020Z,100.83
2019-03-24T07:07:55.679Z,84.50
2019-03-24T07:12:48.240Z,89.67
2019-03-24T07:17:40.951Z,79.90
2019-03-24T07:22:33.554Z,80.17
2019-03-24T07:27:26.007Z,83.40
2019-03-24T07:32:18.721Z,88.03
2019-03-24T07:37:11.333Z,80.00
2019-03-24T07:42:05.529Z,82.93
2019-03-24T07:46:57.392Z,83.03
2019-03-24T07:51:49.990Z,80.77
2019-03-24T07:56:42.357Z,79.32
2019-03-24T08:01:34.924Z,73.33
2019-03-24T08:06:27.372Z,73.80
2019-03-24T08:11:19.718Z,75.55
2019-03-24T08:16:12.485Z,73.50
2019-03-24T08:21:05.465Z,70.10
2019-03-24T08:25:58.183Z,78.02
2019-03-24T08:30:50.898Z,62.45
2019-03-24T08:35:43.618Z,59.80
2019-03-24T08:40:36.398Z,59.42
2019-03-24T08:45:30.439Z,57.83
2019-03-24T08:50:22.807Z,51.08
2019-03-24T08:55:15.656Z,54.08
2019-03-24T09:00:08.333Z,51.92
2019-03-24T09:05:00.738Z,54.90
2019-03-24T09:09:53.201Z,52.83
2019-03-24T09:14:45.638Z,50.05
2019-03-24T09:19:38.358Z,56.40
2019-03-24T09:24:30.922Z,53.85
2019-03-24T09:29:23.260Z,50.30
2019-03-24T09:34:15.873Z,52.78
2019-03-24T09:39:08.835Z,52.58
2019-03-24T09:44:01.322Z,51.65
2019-03-24T09:49:02.630Z,51.50
2019-03-24T09:53:48.037Z,49.30
2019-03-24T09:58:40.481Z,48.50
2019-03-24T10:03:32.982Z,50.12
2019-03-24T10:08:25.470Z,51.10
2019-03-24T10:13:18.173Z,52.30
2019-03-24T10:18:10.767Z,56.70
2019-03-24T10:23:03.330Z,53.08
2019-03-24T10:27:55.729Z,51.50
2019-03-24T10:32:48.120Z,50.43
2019-03-24T10:37:43.417Z,52.40
2019-03-24T10:42:37.497Z,50.20
2019-03-24T10:47:29.894Z,53.05
2019-03-24T10:52:22.360Z,54.38
2019-03-24T10:57:17.774Z,53.75
2019-03-24T11:02:15.923Z,48.60
2019-03-24T11:07:28.590Z,45.15
2019-03-24T11:12:23.204Z,51.00
2019-03-24T11:17:15.753Z,53.38
2019-03-24T11:22:08.429Z,53.55
2019-03-24T11:27:00.710Z,54.60
2019-03-24T11:31:53.152Z,51.90
2019-03-24T11:36:46.258Z,55.00
2019-03-24T11:41:38.703Z,57.33
2019-03-24T11:46:31.346Z,50.40
2019-03-24T11:51:24.132Z,53.68
2019-03-24T11:56:16.644Z,55.17
2019-03-24T12:01:09.441Z,56.40
2019-03-24T12:06:01.942Z,59.88
2019-03-24T12:10:54.662Z,53.33
2019-03-24T12:15:47.523Z,50.78
2019-03-24T12:20:40.238Z,51.25
2019-03-24T12:25:32.562Z,57.48
2019-03-24T12:30:25.284Z,53.45
2019-03-24T12:35:17.453Z,55.55
2019-03-24T12:40:10.708Z,59.18
2019-03-24T12:45:03.059Z,60.35
2019-03-24T12:49:55.692Z,59.00
2019-03-24T12:54:48.242Z,51.53
2019-03-24T12:59:40.785Z,53.90
2019-03-24T13:04:33.428Z,52.25
2019-03-24T13:09:25.804Z,52.48
2019-03-24T13:14:18.358Z,54.40
2019-03-24T13:19:10.890Z,49.88
2019-03-24T13:24:03.507Z,53.20
2019-03-24T13:28:56.103Z,50.83
2019-03-24T13:33:48.642Z,49.75
2019-03-24T13:38:41.353Z,46.83
2019-03-24T13:43:34.104Z,49.80
2019-03-24T13:48:26.590Z,46.92
2019-03-24T13:53:19.285Z,44.83
2019-03-24T13:58:12.328Z,46.48
2019-03-24T14:03:05.085Z,46.20
2019-03-24T14:07:57.802Z,48.63
2019-03-24T14:12:50.263Z,42.45
2019-03-24T14:17:43.061Z,37.70
2019-03-24T14:22:35.634Z,40.55
2019-03-24T14:27:28.089Z,38.92
2019-03-24T14:32:20.534Z,36.77
2019-03-24T14:37:13.474Z,41.23
2019-03-24T14:42:05.979Z,40.73
2019-03-24T14:46:58.421Z,38.90
2019-03-24T14:51:51.164Z,42.25
2019-03-24T14:56:43.681Z,40.15
2019-03-24T15:01:36.146Z,41.60
2019-03-24T15:06:28.594Z,37.28
2019-03-24T15:11:21.484Z,40.25
2019-03-24T15:16:14.181Z,42.58
2019-03-24T15:21:06.560Z,41.58
2019-03-24T15:25:59.058Z,47.08
2019-03-24T15:30:52.112Z,44.42
2019-03-24T15:35:44.728Z,44.60
2019-03-24T15:40:37.197Z,43.50
2019-03-24T15:45:29.830Z,42.08
2019-03-24T15:50:22.745Z,43.60
2019-03-24T15:55:15.177Z,37.30
2019-03-24T16:00:10.908Z,36.03
2019-03-24T16:05:03.519Z,34.27
2019-03-24T16:09:56.251Z,30.68
2019-03-24T16:14:48.624Z,31.40
2019-03-24T16:19:41.679Z,36.45
2019-03-24T16:24:34.909Z,31.57
2019-03-24T16:29:28.103Z,33.23
2019-03-24T16:34:21.387Z,34.00
2019-03-24T16:39:14.285Z,28.98
2019-03-24T16:44:06.983Z,31.87
2019-03-24T16:48:59.918Z,29.57
2019-03-24T16:54:12.041Z,30.97
2019-03-24T16:59:04.922Z,27.77
2019-03-24T17:03:57.666Z,28.10
2019-03-24T17:08:50.589Z,28.00
2019-03-24T17:13:43.050Z,25.12
2019-03-24T17:18:35.709Z,25.02
2019-03-24T17:23:28.643Z,24.87
2019-03-24T17:28:21.451Z,24.57
2019-03-24T17:33:14.290Z,25.02
2019-03-24T17:38:07.141Z,24.82
2019-03-24T17:42:59.781Z,24.43
2019-03-24T17:47:52.632Z,26.80
2019-03-24T17:52:45.700Z,26.77
2019-03-24T17:57:38.665Z,42.73
2019-03-24T18:02:31.513Z,46.58
2019-03-24T18:07:24.373Z,58.90
2019-03-24T18:12:17.133Z,73.72
2019-03-24T18:17:09.754Z,65.22
2019-03-24T18:22:11.234Z,71.07
2019-03-24T18:26:58.209Z,36.58
2019-03-24T18:31:50.865Z,46.58
2019-03-24T18:36:43.300Z,29.82
2019-03-24T18:41:36.042Z,24.32
2019-03-24T18:46:28.621Z,21.15
2019-03-24T18:51:21.275Z,23.73
2019-03-24T18:56:13.919Z,23.98
2019-03-24T19:01:06.595Z,24.07
2019-03-24T19:05:58.993Z,23.12
2019-03-24T19:10:51.364Z,24.80
2019-03-24T19:15:43.630Z,22.48
2019-03-24T19:20:36.137Z,22.90
2019-03-24T19:25:28.247Z,22.27
2019-03-24T19:30:23.882Z,31.62
2019-03-24T19:35:16.429Z,38.35
2019-03-24T19:40:15.037Z,45.78
2019-03-24T19:45:07.725Z,39.45
2019-03-24T19:50:00.377Z,23.80
2019-03-24T19:54:52.916Z,22.42
2019-03-24T19:59:45.690Z,21.73
2019-03-24T20:04:38.068Z,22.40
2019-03-24T20:09:30.482Z,24.33
2019-03-24T20:14:24.038Z,24.93
2019-03-24T20:19:16.570Z,24.70
2019-03-24T20:24:09.162Z,25.20
2019-03-24T20:29:01.849Z,28.30
2019-03-24T20:33:54.466Z,23.40
2019-03-24T20:38:47.261Z,23.43
2019-03-24T20:43:39.920Z,25.40
2019-03-24T20:48:32.221Z,28.63
2019-03-24T20:53:24.565Z,28.97
2019-03-24T20:58:16.960Z,28.30
2019-03-24T21:03:09.592Z,26.33
2019-03-24T21:08:02.110Z,25.63
2019-03-24T21:12:54.689Z,23.93
2019-03-24T21:17:47.426Z,21.40
2019-03-24T21:22:39.916Z,23.13
2019-03-24T21:27:32.476Z,29.93
2019-03-24T21:32:25.384Z,23.47
2019-03-24T21:37:18.176Z,29.07
2019-03-24T21:42:11.621Z,31.67
2019-03-24T21:47:23.703Z,23.60
2019-03-24T21:52:15.735Z,29.43
2019-03-24T21:57:08.409Z,24.90
2019-03-24T22:02:00.756Z,25.60
2019-03-24T22:06:53.148Z,30.27
2019-03-24T22:11:45.941Z,24.67
2019-03-24T22:16:38.461Z,28.93
2019-03-24T22:21:31.169Z,28.97
2019-03-24T22:26:23.891Z,28.70
2019-03-24T22:31:16.384Z,23.73
2019-03-24T22:36:09.064Z,25.53
2019-03-24T22:41:01.748Z,23.80
2019-03-24T22:45:54.733Z,24.27
2019-03-24T22:50:47.552Z,21.27
2019-03-24T22:55:40.380Z,22.17
2019-03-24T23:00:46.757Z,47.17
2019-03-24T23:05:39.241Z,40.50
2019-03-24T23:10:32.449Z,28.80
2019-03-24T23:15:24.997Z,35.30
2019-03-24T23:20:17.346Z,22.80
2019-03-24T23:25:10.070Z,24.40
2019-03-24T23:30:02.260Z,29.23
2019-03-24T23:34:54.715Z,28.90
2019-03-24T23:39:47.090Z,37.70
2019-03-24T23:44:39.766Z,20.33
2019-03-24T23:49:32.447Z,32.93
2019-03-24T23:54:27.195Z,24.00
2019-03-24T23:59:18.941Z,46.03
